createdAt,value
2022-10-31T00:00:01.917Z,6.66
2022-10-31T00:05:01.914Z,5.09
2022-10-31T00:10:01.872Z,4.94
2022-10-31T00:15:01.920Z,9.24
2022-10-31T00:20:01.904Z,8.8
2022-10-31T00:25:01.875Z,7.36
2022-10-31T00:30:01.916Z,5.93
2022-10-31T00:35:01.890Z,6.85
2022-10-31T00:40:01.916Z,8.13
2022-10-31T00:45:01.891Z,7.77
2022-10-31T00:50:01.895Z,7.35
2022-10-31T00:55:01.918Z,8.08
2022-10-31T01:00:01.922Z,8.33
2022-10-31T01:05:01.923Z,7.13
2022-10-31T01:10:01.924Z,5.74
2022-10-31T01:15:01.938Z,6.43
2022-10-31T01:20:01.952Z,7.48
2022-10-31T01:25:01.898Z,7.01
2022-10-31T01:30:01.946Z,4.89
2022-10-31T01:35:01.937Z,5.9
2022-10-31T01:40:01.947Z,6.32
2022-10-31T01:45:01.956Z,6.82
2022-10-31T01:50:01.919Z,6.61
2022-10-31T01:55:01.944Z,5.99
2022-10-31T02:00:01.932Z,6.56
2022-10-31T02:05:01.921Z,6.08
2022-10-31T02:10:01.966Z,5.06
2022-10-31T02:15:01.932Z,4.72
2022-10-31T02:20:01.931Z,5.84
2022-10-31T02:25:01.963Z,6.05
2022-10-31T02:30:01.956Z,4.73
2022-10-31T02:35:01.972Z,4.02
2022-10-31T02:40:01.967Z,5.15
2022-10-31T02:45:01.988Z,6.15
2022-10-31T02:50:01.981Z,6.25
2022-10-31T02:55:01.937Z,6.18
2022-10-31T03:00:01.973Z,5.21
2022-10-31T03:05:01.971Z,4.49
2022-10-31T03:10:01.987Z,4.29
2022-10-31T03:15:01.983Z,4.83
2022-10-31T03:20:01.951Z,6.05
2022-10-31T03:25:01.968Z,5.98
2022-10-31T03:30:02.012Z,4.32
2022-10-31T03:35:01.991Z,4.95
2022-10-31T03:40:01.999Z,5.79
2022-10-31T03:45:01.983Z,5.38
2022-10-31T03:50:01.994Z,4.89
2022-10-31T03:55:01.958Z,5.18
2022-10-31T04:00:02.013Z,4.58
2022-10-31T04:05:02.003Z,5.63
2022-10-31T04:10:01.969Z,5.54
2022-10-31T04:15:01.971Z,4.98
2022-10-31T04:20:01.970Z,4.9
2022-10-31T04:25:01.985Z,4.63
2022-10-31T04:30:01.986Z,4.78
2022-10-31T04:35:02.021Z,4.27
2022-10-31T04:40:02.033Z,4.13
2022-10-31T04:45:01.987Z,4.04
2022-10-31T04:50:02.014Z,3.8
2022-10-31T04:55:02.032Z,4.01
2022-10-31T05:00:02.034Z,3.75
2022-10-31T05:05:02.025Z,3.57
2022-10-31T05:10:01.987Z,3.38
2022-10-31T05:15:02.000Z,3.43
2022-10-31T05:20:02.009Z,3.58
2022-10-31T05:25:02.031Z,3.65
2022-10-31T05:30:02.159Z,4.73
2022-10-31T05:35:01.999Z,3.75
2022-10-31T05:40:05.215Z,3.51
2022-10-31T05:45:02.042Z,3.5
2022-10-31T05:50:02.048Z,3.46
2022-10-31T05:55:02.048Z,3.55
2022-10-31T06:00:02.013Z,3.6
2022-10-31T06:05:02.054Z,3.73
2022-10-31T06:10:02.065Z,3.65
2022-10-31T06:15:02.035Z,3.39
2022-10-31T06:20:02.015Z,3.24
2022-10-31T06:25:02.017Z,2.95
2022-10-31T06:30:02.073Z,2.7
2022-10-31T06:35:02.025Z,2.46
2022-10-31T06:40:02.031Z,3.51
2022-10-31T06:45:02.043Z,3.21
2022-10-31T06:50:02.064Z,3.08
2022-10-31T06:55:02.071Z,2.86
2022-10-31T07:00:02.083Z,2.98
2022-10-31T07:05:02.043Z,3.53
2022-10-31T07:10:02.108Z,4.71
2022-10-31T07:15:02.062Z,5.03
2022-10-31T07:20:02.071Z,4.8
2022-10-31T07:25:02.053Z,4.69
2022-10-31T07:30:02.051Z,4.74
2022-10-31T07:35:02.050Z,4.53
2022-10-31T07:40:02.052Z,4.53
2022-10-31T07:45:02.055Z,5.13
2022-10-31T07:50:02.090Z,5.35
2022-10-31T07:55:02.098Z,4.99
2022-10-31T08:00:02.093Z,4.63
2022-10-31T08:05:02.091Z,3.91
2022-10-31T08:10:02.068Z,3.68
2022-10-31T08:15:02.091Z,3.69
2022-10-31T08:20:02.103Z,3.25
2022-10-31T08:25:02.112Z,3.12
2022-10-31T08:30:02.127Z,2.74
2022-10-31T08:35:02.103Z,2.51
2022-10-31T08:40:02.114Z,2.13
2022-10-31T08:45:02.105Z,1.89
2022-10-31T08:50:02.093Z,1.71
2022-10-31T08:55:02.101Z,1.8
2022-10-31T09:00:02.087Z,1.56
2022-10-31T09:05:02.093Z,1.51
2022-10-31T09:10:02.095Z,1.59
2022-10-31T09:15:02.095Z,1.7
2022-10-31T09:20:02.099Z,1.71
2022-10-31T09:25:02.105Z,2.13
2022-10-31T09:30:02.110Z,2.26
2022-10-31T09:35:02.190Z,1.89
2022-10-31T09:40:02.113Z,1.72
2022-10-31T09:45:02.146Z,2.27
2022-10-31T09:50:02.170Z,2.35
2022-10-31T09:55:02.152Z,2.18
2022-10-31T10:00:02.115Z,2.29
2022-10-31T10:05:02.118Z,2.28
2022-10-31T10:10:02.119Z,2.79
2022-10-31T10:15:02.154Z,2.9
2022-10-31T10:20:02.124Z,3.07
2022-10-31T10:25:02.159Z,3.07
2022-10-31T10:30:02.157Z,2.88
2022-10-31T10:35:02.143Z,2.83
2022-10-31T10:40:02.175Z,3.11
2022-10-31T10:45:02.189Z,2.44
2022-10-31T10:50:02.168Z,2.63
2022-10-31T10:55:02.175Z,3.02
2022-10-31T11:00:02.152Z,3.02
2022-10-31T11:05:02.161Z,2.28
2022-10-31T11:10:02.182Z,2.73
2022-10-31T11:15:02.201Z,2.86
2022-10-31T11:20:02.159Z,2.83
2022-10-31T11:25:02.168Z,2.83
2022-10-31T11:30:02.170Z,2.78
2022-10-31T11:35:02.202Z,2.62
2022-10-31T11:40:02.202Z,3.29
2022-10-31T11:45:02.175Z,2.4
2022-10-31T11:50:02.178Z,2.54
2022-10-31T11:55:02.185Z,3.07
2022-10-31T12:00:02.213Z,2.46
2022-10-31T12:05:02.187Z,3.16
2022-10-31T12:10:02.225Z,2.91
2022-10-31T12:15:02.193Z,2.96
2022-10-31T12:20:02.217Z,3.11
2022-10-31T12:25:02.197Z,2.97
2022-10-31T12:30:02.251Z,2.88
2022-10-31T12:35:02.241Z,3.49
2022-10-31T12:40:02.210Z,3.23
2022-10-31T12:45:02.247Z,3.42
2022-10-31T12:50:02.209Z,3.01
2022-10-31T12:55:02.279Z,2.79
2022-10-31T13:00:02.218Z,3.13
2022-10-31T13:05:02.259Z,3.58
2022-10-31T13:10:02.247Z,3.63
2022-10-31T13:15:02.261Z,3.95
2022-10-31T13:20:02.235Z,3.63
2022-10-31T13:25:02.239Z,3.83
2022-10-31T13:30:02.232Z,2.43
2022-10-31T13:35:02.243Z,2.03
2022-10-31T13:40:02.250Z,3.2
2022-10-31T13:45:02.252Z,3.34
2022-10-31T13:50:02.249Z,2.59
2022-10-31T13:55:02.290Z,2.4
2022-10-31T14:00:02.274Z,2.11
2022-10-31T14:05:02.304Z,2.47
2022-10-31T14:10:02.268Z,4.92
2022-10-31T14:15:02.256Z,3.47
2022-10-31T14:20:02.299Z,5.42
2022-10-31T14:25:02.314Z,5.87
2022-10-31T14:30:02.278Z,4.24
2022-10-31T14:35:02.277Z,2.88
2022-10-31T14:40:02.321Z,2.62
2022-10-31T14:45:02.275Z,2.61
2022-10-31T14:50:02.297Z,2.66
2022-10-31T14:55:02.287Z,2.81
2022-10-31T15:00:03.581Z,3.07
2022-10-31T15:05:02.290Z,3.15
2022-10-31T15:10:02.293Z,3.66
2022-10-31T15:15:02.320Z,3.88
2022-10-31T15:20:02.302Z,3.92
2022-10-31T15:25:02.302Z,4.05
2022-10-31T15:30:02.296Z,4.05
2022-10-31T15:35:02.338Z,4.26
2022-10-31T15:40:02.338Z,4.63
2022-10-31T15:45:02.342Z,5.33
2022-10-31T15:50:02.335Z,6.66
2022-10-31T15:55:02.326Z,6.49
2022-10-31T16:00:02.311Z,6.17
2022-10-31T16:05:02.318Z,6.24
2022-10-31T16:10:02.455Z,6.13
2022-10-31T16:15:02.354Z,6.52
2022-10-31T16:20:02.427Z,6.45
2022-10-31T16:25:02.348Z,6.45
2022-10-31T16:30:02.516Z,6.42
2022-10-31T16:35:02.347Z,5.65
2022-10-31T16:40:02.338Z,5.46
2022-10-31T16:45:02.335Z,7.09
2022-10-31T16:50:02.371Z,11.29
2022-10-31T16:55:02.385Z,11.69
2022-10-31T17:00:02.342Z,16.09
2022-10-31T17:05:02.373Z,14.48
2022-10-31T17:10:02.354Z,9.5
2022-10-31T17:15:02.359Z,8.09
2022-10-31T17:20:02.357Z,8.18
2022-10-31T17:25:02.388Z,18.58
2022-10-31T17:30:02.390Z,12.78
2022-10-31T17:35:02.355Z,13.2
2022-10-31T17:40:02.363Z,21.93
2022-10-31T17:45:02.394Z,16.64
2022-10-31T17:50:02.365Z,9.69
2022-10-31T17:55:02.367Z,10.55
2022-10-31T18:00:02.413Z,11.12
2022-10-31T18:05:02.375Z,9.92
2022-10-31T18:10:02.374Z,7.29
2022-10-31T18:15:02.408Z,8.11
2022-10-31T18:20:02.377Z,7.93
2022-10-31T18:25:02.415Z,7.73
2022-10-31T18:30:02.382Z,6.8
2022-10-31T18:35:02.414Z,6.75
2022-10-31T18:40:02.405Z,7.61
2022-10-31T18:45:06.603Z,8.17
2022-10-31T18:50:02.415Z,7.96
2022-10-31T18:55:02.391Z,7.2
2022-10-31T19:00:02.425Z,7.08
2022-10-31T19:05:02.427Z,6.88
2022-10-31T19:10:02.402Z,6.54
2022-10-31T19:15:02.395Z,7.02
2022-10-31T19:20:02.399Z,7.41
2022-10-31T19:25:06.134Z,7.79
2022-10-31T19:30:02.404Z,8.46
2022-10-31T19:35:02.412Z,7.95
2022-10-31T19:40:02.441Z,7.17
2022-10-31T19:45:02.452Z,7.21
2022-10-31T19:50:02.407Z,6.56
2022-10-31T19:55:02.419Z,7.84
2022-10-31T20:00:02.435Z,6.17
2022-10-31T20:05:02.420Z,9.22
2022-10-31T20:10:02.456Z,6.87
2022-10-31T20:15:02.471Z,7.75
2022-10-31T20:20:02.471Z,7.25
2022-10-31T20:25:02.428Z,6.93
2022-10-31T20:30:02.437Z,7.23
2022-10-31T20:35:02.460Z,7.86
2022-10-31T20:40:02.467Z,7.9
2022-10-31T20:45:02.439Z,8.26
2022-10-31T20:50:02.438Z,8.11
2022-10-31T20:55:02.467Z,7.87
2022-10-31T21:00:02.445Z,8.19
2022-10-31T21:05:02.491Z,7.6
2022-10-31T21:10:02.474Z,7.46
2022-10-31T21:15:02.446Z,7.63
2022-10-31T21:20:02.457Z,7.19
2022-10-31T21:25:02.451Z,6.32
2022-10-31T21:30:02.452Z,5.91
2022-10-31T21:35:02.509Z,5.78
2022-10-31T21:40:02.461Z,5.29
2022-10-31T21:45:02.464Z,6.1
2022-10-31T21:50:02.483Z,7.23
2022-10-31T21:55:02.462Z,5.31
2022-10-31T22:00:02.495Z,4.48
2022-10-31T22:05:02.484Z,4.5
2022-10-31T22:10:02.507Z,4.39
2022-10-31T22:15:02.493Z,5.87
2022-10-31T22:20:02.503Z,5.66
2022-10-31T22:25:02.478Z,3.93
2022-10-31T22:30:02.519Z,6.29
2022-10-31T22:35:02.509Z,8.49
2022-10-31T22:40:02.511Z,7.46
2022-10-31T22:45:02.527Z,7.81
2022-10-31T22:50:02.523Z,5.65
2022-10-31T22:55:02.524Z,3.72
2022-10-31T23:00:02.522Z,3.51
2022-10-31T23:05:02.531Z,5.47
2022-10-31T23:10:02.531Z,4.81
2022-10-31T23:15:02.533Z,3.94
2022-10-31T23:20:02.500Z,3.56
2022-10-31T23:25:02.499Z,3.5
2022-10-31T23:30:02.504Z,3.35
2022-10-31T23:35:02.535Z,3.08
2022-10-31T23:40:02.519Z,2.78
2022-10-31T23:45:02.513Z,2.78
2022-10-31T23:50:02.509Z,2.97
2022-10-31T23:55:02.534Z,2.96
